createdAt,value
2024-01-15T00:02:14.529Z,16.13
2024-01-15T00:05:16.283Z,13.30
2024-01-15T00:08:18.017Z,12.40
2024-01-15T00:11:20.538Z,14.43
2024-01-15T00:14:22.329Z,9.57
2024-01-15T00:17:24.108Z,13.07
2024-01-15T00:20:27.694Z,15.50
2024-01-15T00:23:31.051Z,16.13
2024-01-15T00:26:32.799Z,12.97
2024-01-15T00:29:34.607Z,20.27
2024-01-15T00:32:36.461Z,12.70
2024-01-15T00:35:38.254Z,12.90
2024-01-15T00:38:40.246Z,10.40
2024-01-15T00:41:42.023Z,10.70
2024-01-15T00:44:43.830Z,15.07
2024-01-15T00:47:46.025Z,9.03
2024-01-15T00:50:47.890Z,10.43
2024-01-15T00:53:49.639Z,12.27
2024-01-15T00:56:51.380Z,18.13
2024-01-15T00:59:53.212Z,13.93
2024-01-15T01:02:55.005Z,14.33
2024-01-15T01:05:56.865Z,19.30
2024-01-15T01:08:58.707Z,10.43
2024-01-15T01:12:00.464Z,12.30
2024-01-15T01:15:02.437Z,9.63
2024-01-15T01:18:04.748Z,12.03
2024-01-15T01:21:06.659Z,15.70
2024-01-15T01:24:08.776Z,12.40
2024-01-15T01:27:10.573Z,12.07
2024-01-15T01:30:12.575Z,14.30
2024-01-15T01:33:14.841Z,13.43
2024-01-15T01:36:16.805Z,16.77
2024-01-15T01:39:18.785Z,14.57
2024-01-15T01:42:20.610Z,9.73
2024-01-15T01:45:22.541Z,10.97
2024-01-15T01:48:26.643Z,11.00
2024-01-15T01:51:28.506Z,12.27
2024-01-15T01:54:32.387Z,19.13
2024-01-15T01:57:35.976Z,10.00
2024-01-15T02:00:38.170Z,11.77
2024-01-15T02:03:41.410Z,11.70
2024-01-15T02:06:43.444Z,10.80
2024-01-15T02:09:46.113Z,10.73
2024-01-15T02:12:49.735Z,17.87
2024-01-15T02:15:51.847Z,10.27
2024-01-15T02:18:53.736Z,9.53
2024-01-15T02:21:55.658Z,13.00
2024-01-15T02:24:57.599Z,6.63
2024-01-15T02:27:59.709Z,11.10
2024-01-15T02:31:01.850Z,7.43
2024-01-15T02:34:03.812Z,8.17
2024-01-15T02:37:05.736Z,7.03
2024-01-15T02:40:08.200Z,9.00
2024-01-15T02:43:10.116Z,14.10
2024-01-15T02:46:11.862Z,15.63
2024-01-15T02:49:13.754Z,8.53
2024-01-15T02:52:15.543Z,13.73
2024-01-15T02:55:17.385Z,14.20
2024-01-15T02:58:19.175Z,7.27
2024-01-15T03:01:21.601Z,7.90
2024-01-15T03:04:23.649Z,11.50
2024-01-15T03:07:25.579Z,7.97
2024-01-15T03:10:27.430Z,9.93
2024-01-15T03:13:29.243Z,7.03
2024-01-15T03:16:31.125Z,9.87
2024-01-15T03:19:37.708Z,10.87
2024-01-15T03:22:39.556Z,12.00
2024-01-15T03:25:41.300Z,9.63
2024-01-15T03:28:43.068Z,8.07
2024-01-15T03:31:44.929Z,12.23
2024-01-15T03:34:48.577Z,8.47
2024-01-15T03:37:50.430Z,6.77
2024-01-15T03:40:52.837Z,8.67
2024-01-15T03:43:54.609Z,4.80
2024-01-15T03:46:56.427Z,6.50
2024-01-15T03:49:58.225Z,15.70
2024-01-15T03:52:59.942Z,6.60
2024-01-15T03:56:01.835Z,15.57
2024-01-15T03:59:03.981Z,5.40
2024-01-15T04:02:05.826Z,7.23
2024-01-15T04:05:07.780Z,10.47
2024-01-15T04:08:09.523Z,5.40
2024-01-15T04:11:11.279Z,28.00
2024-01-15T04:14:13.022Z,8.80
2024-01-15T04:17:14.830Z,5.60
2024-01-15T04:20:16.696Z,9.40
2024-01-15T04:23:18.423Z,16.83
2024-01-15T04:26:20.140Z,7.57
2024-01-15T04:29:21.865Z,5.90
2024-01-15T04:32:26.675Z,9.47
2024-01-15T04:35:28.469Z,6.13
2024-01-15T04:38:30.346Z,11.43
2024-01-15T04:41:32.099Z,11.03
2024-01-15T04:44:33.883Z,7.77
2024-01-15T04:47:37.837Z,4.33
2024-01-15T04:50:39.718Z,8.30
2024-01-15T04:53:42.318Z,8.07
2024-01-15T04:56:44.421Z,8.07
2024-01-15T04:59:46.162Z,9.73
2024-01-15T05:02:47.919Z,3.77
2024-01-15T05:05:49.737Z,8.50
2024-01-15T05:08:51.622Z,10.93
2024-01-15T05:11:53.385Z,4.40
2024-01-15T05:14:55.131Z,15.17
2024-01-15T05:17:57.032Z,16.30
2024-01-15T05:20:58.825Z,3.67
2024-01-15T05:24:00.776Z,7.97
2024-01-15T05:27:02.747Z,4.47
2024-01-15T05:30:05.141Z,15.97
2024-01-15T05:33:08.565Z,13.07
2024-01-15T05:36:10.417Z,14.83
2024-01-15T05:39:12.150Z,11.17
2024-01-15T05:42:14.063Z,11.97
2024-01-15T05:45:16.016Z,2.10
2024-01-15T05:48:17.928Z,10.23
2024-01-15T05:51:19.771Z,4.40
2024-01-15T05:54:21.583Z,6.43
2024-01-15T05:57:23.445Z,4.77
2024-01-15T06:00:25.240Z,12.40
2024-01-15T06:03:28.170Z,4.93
2024-01-15T06:06:30.034Z,8.27
2024-01-15T06:09:32.680Z,14.10
2024-01-15T06:12:34.905Z,7.53
2024-01-15T06:15:36.868Z,5.70
2024-01-15T06:18:39.512Z,3.97
2024-01-15T06:21:41.416Z,5.50
2024-01-15T06:24:43.786Z,8.27
2024-01-15T06:27:45.622Z,4.30
2024-01-15T06:30:47.451Z,7.13
2024-01-15T06:33:50.102Z,6.73
2024-01-15T06:36:52.067Z,7.27
2024-01-15T06:39:54.021Z,11.53
2024-01-15T06:42:55.871Z,3.90
2024-01-15T06:45:57.669Z,3.93
2024-01-15T06:48:59.436Z,6.90
2024-01-15T06:52:01.666Z,2.73
2024-01-15T06:55:04.138Z,4.70
2024-01-15T06:58:06.546Z,1.57
2024-01-15T07:01:09.281Z,4.13
2024-01-15T07:04:11.501Z,5.33
2024-01-15T07:07:13.624Z,5.10
2024-01-15T07:11:02.400Z,3.43
2024-01-15T07:14:04.912Z,7.50
2024-01-15T07:17:07.506Z,3.97
2024-01-15T07:20:10.477Z,7.00
2024-01-15T07:23:13.186Z,2.10
2024-01-15T07:26:15.009Z,8.87
2024-01-15T07:29:16.871Z,1.90
2024-01-15T07:32:19.006Z,1.47
2024-01-15T07:35:20.983Z,2.17
2024-01-15T07:38:23.863Z,3.43
2024-01-15T07:41:25.626Z,4.90
2024-01-15T07:44:27.675Z,3.77
2024-01-15T07:47:29.750Z,2.67
2024-01-15T07:50:32.066Z,1.47
2024-01-15T07:53:33.828Z,5.63
2024-01-15T07:56:35.614Z,5.23
2024-01-15T07:59:37.589Z,3.13
2024-01-15T08:02:39.640Z,3.23
2024-01-15T08:05:41.535Z,3.27
2024-01-15T08:08:43.347Z,1.80
2024-01-15T08:11:45.162Z,2.03
2024-01-15T08:14:46.938Z,1.73
2024-01-15T08:17:48.737Z,1.40
2024-01-15T08:20:52.441Z,3.43
2024-01-15T08:23:54.240Z,2.67
2024-01-15T08:26:57.160Z,2.93
2024-01-15T08:29:59.175Z,4.90
2024-01-15T08:33:08.238Z,5.10
2024-01-15T08:36:14.343Z,2.67
2024-01-15T08:39:16.340Z,1.60
2024-01-15T08:42:18.176Z,3.03
2024-01-15T08:45:21.274Z,0.73
2024-01-15T08:48:23.173Z,1.40
2024-01-15T08:51:25.006Z,2.13
2024-01-15T08:54:26.765Z,2.23
2024-01-15T08:57:28.522Z,2.03
2024-01-15T09:00:30.720Z,1.40
2024-01-15T09:03:33.289Z,2.07
2024-01-15T09:06:35.165Z,3.70
2024-01-15T09:09:37.616Z,2.47
2024-01-15T09:12:40.165Z,3.17
2024-01-15T09:15:42.153Z,2.33
2024-01-15T09:18:44.260Z,2.97
2024-01-15T09:21:46.710Z,4.97
2024-01-15T09:24:48.807Z,2.20
2024-01-15T09:27:50.661Z,3.90
2024-01-15T09:30:52.533Z,1.60
2024-01-15T09:33:57.277Z,2.13
2024-01-15T09:37:00.938Z,2.27
2024-01-15T09:40:03.711Z,0.67
2024-01-15T09:43:06.189Z,0.90
2024-01-15T09:46:08.577Z,2.67
2024-01-15T09:49:10.527Z,1.40
2024-01-15T09:52:12.886Z,1.73
2024-01-15T09:55:16.994Z,3.03
2024-01-15T09:58:19.210Z,0.83
2024-01-15T10:01:24.577Z,1.03
2024-01-15T10:04:26.462Z,1.33
2024-01-15T10:07:30.523Z,1.63
2024-01-15T10:10:32.520Z,0.93
2024-01-15T10:13:35.003Z,3.40
2024-01-15T10:16:38.004Z,0.70
2024-01-15T10:19:39.815Z,1.07
2024-01-15T10:22:43.345Z,0.97
2024-01-15T10:25:45.121Z,0.50
2024-01-15T10:28:52.149Z,0.80
2024-01-15T10:31:54.039Z,0.67
2024-01-15T10:34:56.393Z,1.37
2024-01-15T10:37:58.279Z,1.20
2024-01-15T10:41:00.278Z,1.13
2024-01-15T10:44:02.287Z,2.33
2024-01-15T10:47:05.165Z,0.90
2024-01-15T10:50:08.659Z,1.70
2024-01-15T10:53:12.223Z,2.77
2024-01-15T10:56:14.898Z,1.43
2024-01-15T10:59:17.353Z,1.80
2024-01-15T11:02:19.907Z,1.00
2024-01-15T11:05:23.250Z,1.23
2024-01-15T11:08:26.322Z,1.40
2024-01-15T11:11:28.056Z,3.53
2024-01-15T11:15:02.476Z,5.03
2024-01-15T11:18:06.826Z,5.97
2024-01-15T11:21:16.095Z,2.07
2024-01-15T11:24:41.609Z,1.83
2024-01-15T11:27:44.706Z,2.23
2024-01-15T11:30:46.514Z,3.87
2024-01-15T11:33:51.649Z,3.00
2024-01-15T11:36:53.609Z,6.67
2024-01-15T11:39:57.369Z,3.10
2024-01-15T11:42:59.564Z,0.60
2024-01-15T11:46:04.656Z,1.83
2024-01-15T11:49:10.134Z,1.57
2024-01-15T11:52:12.896Z,2.23
2024-01-15T11:55:31.866Z,2.23
2024-01-15T11:58:34.897Z,0.67
2024-01-15T12:01:36.881Z,1.53
2024-01-15T12:04:40.661Z,4.47
2024-01-15T12:07:43.839Z,3.63
2024-01-15T12:10:45.678Z,1.87
2024-01-15T12:13:47.595Z,4.33
2024-01-15T12:16:50.431Z,0.50
2024-01-15T12:19:52.729Z,6.30
2024-01-15T12:23:01.502Z,2.73
2024-01-15T12:26:05.240Z,1.43
2024-01-15T12:29:08.430Z,4.33
2024-01-15T12:32:10.226Z,1.87
2024-01-15T12:35:12.754Z,2.73
2024-01-15T12:38:14.597Z,3.43
2024-01-15T12:41:16.569Z,1.13
2024-01-15T12:44:18.372Z,5.87
2024-01-15T12:47:21.147Z,1.77
2024-01-15T12:50:25.760Z,3.73
2024-01-15T12:53:27.519Z,1.00
2024-01-15T12:56:29.330Z,7.27
2024-01-15T12:59:31.120Z,1.97
2024-01-15T13:02:32.977Z,1.57
2024-01-15T13:05:37.739Z,2.93
2024-01-15T13:08:39.790Z,1.43
2024-01-15T13:11:41.661Z,2.10
2024-01-15T13:14:43.389Z,0.60
2024-01-15T13:17:45.215Z,4.37
2024-01-15T13:20:46.978Z,5.50
2024-01-15T13:23:48.772Z,0.70
2024-01-15T13:26:50.567Z,1.20
2024-01-15T13:29:52.627Z,4.30
2024-01-15T13:32:55.559Z,2.13
2024-01-15T13:35:57.549Z,1.63
2024-01-15T13:39:00.042Z,2.97
2024-01-15T13:42:01.817Z,4.43
2024-01-15T13:45:03.965Z,2.70
2024-01-15T13:48:06.826Z,2.50
2024-01-15T13:51:08.629Z,5.03
2024-01-15T13:54:10.640Z,5.90
2024-01-15T13:57:12.410Z,3.50
2024-01-15T14:00:19.476Z,0.53
2024-01-15T14:03:21.508Z,1.17
2024-01-15T14:06:23.356Z,4.07
2024-01-15T14:09:26.652Z,3.17
2024-01-15T14:12:28.636Z,4.37
2024-01-15T14:15:30.819Z,1.30
2024-01-15T14:18:35.033Z,0.87
2024-01-15T14:21:37.670Z,4.63
2024-01-15T14:24:40.152Z,1.30
2024-01-15T14:27:41.936Z,5.73
2024-01-15T14:30:43.826Z,1.83
2024-01-15T14:33:45.780Z,0.93
2024-01-15T14:36:47.965Z,0.60
2024-01-15T14:39:50.163Z,2.10
2024-01-15T14:42:52.628Z,2.37
2024-01-15T14:45:54.412Z,3.30
2024-01-15T14:48:56.239Z,0.70
2024-01-15T14:51:58.149Z,1.10
2024-01-15T14:55:00.151Z,1.03
2024-01-15T14:58:02.012Z,1.70
2024-01-15T15:01:04.812Z,1.50
2024-01-15T15:04:07.090Z,2.93
2024-01-15T15:07:09.074Z,0.80
2024-01-15T15:10:12.200Z,0.83
2024-01-15T15:13:14.610Z,0.40
2024-01-15T15:16:16.741Z,0.30
2024-01-15T15:19:18.780Z,1.07
2024-01-15T15:22:22.057Z,3.70
2024-01-15T15:25:24.149Z,1.60
2024-01-15T15:28:25.953Z,8.10
2024-01-15T15:31:29.570Z,4.83
2024-01-15T15:34:31.464Z,0.93
2024-01-15T15:37:33.286Z,0.50
2024-01-15T15:40:35.141Z,5.63
2024-01-15T15:43:36.913Z,4.00
2024-01-15T15:46:39.004Z,2.37
2024-01-15T15:49:42.397Z,2.13
2024-01-15T15:52:44.441Z,0.63
2024-01-15T15:55:46.202Z,3.10
2024-01-15T15:58:47.981Z,2.67
2024-01-15T16:01:49.950Z,4.67
2024-01-15T16:04:51.942Z,7.53
2024-01-15T16:07:53.785Z,2.73
2024-01-15T16:10:56.695Z,2.40
2024-01-15T16:13:59.983Z,0.57
2024-01-15T16:23:14.146Z,6.60
2024-01-15T16:23:30.435Z,1.80
2024-01-15T16:24:10.418Z,1.80
2024-01-15T16:30:25.494Z,0.73
2024-01-15T16:33:32.087Z,1.30
2024-01-15T16:36:34.609Z,0.63
2024-01-15T16:39:36.617Z,1.13
2024-01-15T16:42:39.027Z,4.57
2024-01-15T16:45:40.930Z,1.97
2024-01-15T16:48:43.063Z,1.33
2024-01-15T16:51:45.192Z,3.70
2024-01-15T16:54:46.955Z,4.53
2024-01-15T16:57:48.711Z,3.53
2024-01-15T17:00:50.562Z,1.40
2024-01-15T17:03:53.421Z,1.93
2024-01-15T17:06:55.199Z,2.90
2024-01-15T17:09:57.434Z,4.27
2024-01-15T17:13:00.915Z,1.00
2024-01-15T17:16:03.979Z,7.73
2024-01-15T17:19:08.365Z,5.30
2024-01-15T17:22:11.475Z,1.20
2024-01-15T17:25:13.722Z,1.87
2024-01-15T17:28:15.501Z,3.67
2024-01-15T17:31:17.233Z,6.40
2024-01-15T17:34:19.003Z,6.63
2024-01-15T17:37:20.769Z,5.93
2024-01-15T17:40:23.525Z,1.90
2024-01-15T17:43:25.353Z,4.93
2024-01-15T17:46:29.010Z,1.53
2024-01-15T17:49:31.852Z,9.70
2024-01-15T17:52:33.610Z,3.03
2024-01-15T17:55:35.380Z,1.53
2024-01-15T17:58:37.151Z,2.37
2024-01-15T18:01:42.860Z,2.80
2024-01-15T18:04:44.843Z,3.03
2024-01-15T18:07:46.575Z,2.53
2024-01-15T18:10:48.336Z,7.07
2024-01-15T18:13:50.289Z,4.00
2024-01-15T18:16:52.177Z,4.07
2024-01-15T18:19:54.593Z,1.07
2024-01-15T18:22:57.375Z,1.77
2024-01-15T18:25:59.170Z,1.47
2024-01-15T18:29:01.169Z,0.63
2024-01-15T18:32:03.204Z,2.57
2024-01-15T18:35:05.523Z,4.60
2024-01-15T18:38:07.376Z,1.90
2024-01-15T18:41:09.280Z,5.57
2024-01-15T18:44:14.770Z,2.47
2024-01-15T18:47:16.667Z,0.97
2024-01-15T18:50:18.930Z,6.57
2024-01-15T18:53:20.694Z,0.37
2024-01-15T18:56:23.610Z,2.83
2024-01-15T18:59:25.845Z,3.10
2024-01-15T19:02:27.633Z,0.83
2024-01-15T19:05:29.717Z,4.73
2024-01-15T19:08:31.741Z,1.20
2024-01-15T19:11:33.586Z,1.13
2024-01-15T19:14:35.725Z,0.63
2024-01-15T19:17:39.121Z,2.43
2024-01-15T19:20:41.817Z,1.83
2024-01-15T19:23:43.988Z,4.50
2024-01-15T19:26:46.040Z,1.30
2024-01-15T19:29:48.301Z,4.80
2024-01-15T19:32:50.686Z,4.93
2024-01-15T19:35:52.584Z,4.63
2024-01-15T19:38:54.582Z,5.37
2024-01-15T19:41:56.942Z,4.60
2024-01-15T19:44:59.601Z,1.57
2024-01-15T19:48:01.706Z,3.33
2024-01-15T19:51:04.339Z,1.47
2024-01-15T19:54:06.440Z,1.07
2024-01-15T19:57:08.309Z,1.47
2024-01-15T20:00:10.845Z,6.37
2024-01-15T20:03:12.787Z,3.93
2024-01-15T20:06:15.720Z,6.23
2024-01-15T20:09:17.719Z,6.80
2024-01-15T20:12:19.438Z,3.37
2024-01-15T20:15:21.701Z,5.97
2024-01-15T20:18:23.838Z,4.57
2024-01-15T20:21:27.101Z,4.47
2024-01-15T20:28:07.607Z,4.77
2024-01-15T20:31:10.460Z,2.87
2024-01-15T20:34:13.328Z,2.63
2024-01-15T20:37:16.091Z,1.73
2024-01-15T20:40:18.094Z,5.53
2024-01-15T20:43:19.991Z,2.20
2024-01-15T20:46:23.262Z,7.87
2024-01-15T20:49:27.271Z,8.10
2024-01-15T20:52:29.513Z,6.47
2024-01-15T20:55:31.420Z,2.80
2024-01-15T20:58:33.208Z,4.40
2024-01-15T21:01:34.954Z,5.87
2024-01-15T21:04:36.672Z,3.63
2024-01-15T21:07:38.427Z,1.73
2024-01-15T21:10:41.283Z,3.70
2024-01-15T21:13:43.020Z,3.23
2024-01-15T21:16:45.406Z,6.10
2024-01-15T21:19:47.662Z,1.53
2024-01-15T21:22:50.214Z,9.00
2024-01-15T21:25:52.255Z,1.57
2024-01-15T21:28:54.439Z,2.50
2024-01-15T21:31:56.172Z,9.83
2024-01-15T21:34:57.892Z,5.77
2024-01-15T21:37:59.614Z,7.10
2024-01-15T21:41:02.098Z,4.20
2024-01-15T21:44:07.423Z,2.30
2024-01-15T21:47:09.264Z,0.77
2024-01-15T21:50:11.130Z,1.30
2024-01-15T21:53:17.095Z,2.80
2024-01-15T21:56:18.920Z,3.47
2024-01-15T21:59:20.755Z,3.83
2024-01-15T22:02:22.557Z,3.73
2024-01-15T22:05:24.328Z,7.33
2024-01-15T22:08:26.202Z,5.87
2024-01-15T22:11:28.019Z,2.40
2024-01-15T22:14:29.822Z,2.37
2024-01-15T22:17:32.069Z,0.53
2024-01-15T22:20:33.933Z,12.17
2024-01-15T22:23:35.749Z,13.77
2024-01-15T22:26:38.342Z,4.73
2024-01-15T22:29:40.445Z,5.47
2024-01-15T22:32:42.448Z,8.53
2024-01-15T22:35:44.396Z,8.90
2024-01-15T22:38:46.359Z,6.53
2024-01-15T22:41:48.142Z,5.70
2024-01-15T22:44:50.047Z,1.83
2024-01-15T22:47:51.997Z,5.33
2024-01-15T22:50:53.817Z,5.10
2024-01-15T22:53:55.696Z,2.93
2024-01-15T22:56:57.512Z,1.77
2024-01-15T22:59:59.286Z,3.03
2024-01-15T23:03:02.503Z,6.27
2024-01-15T23:06:05.052Z,1.53
2024-01-15T23:09:07.108Z,3.13
2024-01-15T23:12:09.181Z,4.07
2024-01-15T23:15:11.040Z,2.30
2024-01-15T23:18:13.036Z,2.43
2024-01-15T23:21:14.848Z,4.87
2024-01-15T23:24:16.581Z,2.97
2024-01-15T23:27:18.307Z,2.00
2024-01-15T23:30:20.933Z,1.13
2024-01-15T23:33:22.848Z,1.60
2024-01-15T23:36:25.839Z,4.30
2024-01-15T23:39:27.566Z,3.03
2024-01-15T23:42:29.358Z,4.53
2024-01-15T23:45:32.612Z,3.83
2024-01-15T23:48:34.427Z,3.00
2024-01-15T23:51:36.939Z,12.20
2024-01-15T23:54:38.731Z,5.43
2024-01-15T23:57:40.528Z,4.37
